createdAt,value
2022-08-19T00:00:00.888Z,18.09
2022-08-19T00:01:00.871Z,18.03
2022-08-19T00:02:00.855Z,18.13
2022-08-19T00:03:00.846Z,18.12
2022-08-19T00:04:00.839Z,18.05
2022-08-19T00:05:00.869Z,18.08
2022-08-19T00:06:00.837Z,18.20
2022-08-19T00:07:00.802Z,18.15
2022-08-19T00:08:00.797Z,18.21
2022-08-19T00:09:00.833Z,18.09
2022-08-19T00:10:00.800Z,18.12
2022-08-19T00:11:00.771Z,18.20
2022-08-19T00:12:00.775Z,18.15
2022-08-19T00:13:00.771Z,18.08
2022-08-19T00:14:00.754Z,18.08
2022-08-19T00:15:00.765Z,18.01
2022-08-19T00:16:00.742Z,17.99
2022-08-19T00:17:00.753Z,18.03
2022-08-19T00:18:00.737Z,18.03
2022-08-19T00:19:00.709Z,18.06
2022-08-19T00:20:00.718Z,18.02
2022-08-19T00:21:00.714Z,18.05
2022-08-19T00:22:00.709Z,18.12
2022-08-19T00:23:00.689Z,18.12
2022-08-19T00:24:00.679Z,18.11
2022-08-19T00:25:00.677Z,18.15
2022-08-19T00:26:00.672Z,18.18
2022-08-19T00:27:25.946Z,18.08
2022-08-19T00:28:01.653Z,18.21
2022-08-19T00:29:00.636Z,18.15
2022-08-19T00:30:00.631Z,18.20
2022-08-19T00:31:00.625Z,18.21
2022-08-19T00:32:00.640Z,18.21
2022-08-19T00:33:00.622Z,18.21
2022-08-19T00:34:00.608Z,18.26
2022-08-19T00:35:00.595Z,18.26
2022-08-19T00:36:00.587Z,18.26
2022-08-19T00:37:00.594Z,18.23
2022-08-19T00:38:00.584Z,18.27
2022-08-19T00:39:00.593Z,18.21
2022-08-19T00:40:00.602Z,18.17
2022-08-19T00:41:00.542Z,18.11
2022-08-19T00:42:00.556Z,18.12
2022-08-19T00:43:00.553Z,18.23
2022-08-19T00:44:00.562Z,18.18
2022-08-19T00:45:00.503Z,18.26
2022-08-19T00:46:00.509Z,18.24
2022-08-19T00:47:01.044Z,18.23
2022-08-19T00:48:00.516Z,18.18
2022-08-19T00:49:00.471Z,18.20
2022-08-19T00:50:00.463Z,18.18
2022-08-19T00:51:00.449Z,18.24
2022-08-19T00:52:00.456Z,18.21
2022-08-19T00:53:00.446Z,18.21
2022-08-19T00:54:00.451Z,18.24
2022-08-19T00:55:00.436Z,18.21
2022-08-19T00:56:00.425Z,18.31
2022-08-19T00:57:00.415Z,18.21
2022-08-19T00:58:00.411Z,18.24
2022-08-19T00:59:00.421Z,18.27
2022-08-19T01:00:02.484Z,18.23
2022-08-19T01:01:00.376Z,18.23
2022-08-19T01:02:00.375Z,18.15
2022-08-19T01:03:00.363Z,18.20
2022-08-19T01:04:00.361Z,18.17
2022-08-19T01:05:00.372Z,18.11
2022-08-19T01:06:00.335Z,18.13
2022-08-19T01:07:00.334Z,18.26
2022-08-19T01:08:00.330Z,18.27
2022-08-19T01:09:00.319Z,18.34
2022-08-19T01:10:00.331Z,18.39
2022-08-19T01:11:00.304Z,18.39
2022-08-19T01:12:00.288Z,18.31
2022-08-19T01:13:00.281Z,18.28
2022-08-19T01:14:00.282Z,18.41
2022-08-19T01:15:00.264Z,18.33
2022-08-19T01:16:00.283Z,18.33
2022-08-19T01:17:00.245Z,18.43
2022-08-19T01:18:00.293Z,18.38
2022-08-19T01:19:00.254Z,18.34
2022-08-19T01:20:00.225Z,18.34
2022-08-19T01:21:00.224Z,18.39
2022-08-19T01:22:00.217Z,18.36
2022-08-19T01:23:01.240Z,18.49
2022-08-19T01:24:00.199Z,18.48
2022-08-19T01:25:00.214Z,18.52
2022-08-19T01:26:00.185Z,18.57
2022-08-19T01:27:00.179Z,18.51
2022-08-19T01:28:07.223Z,18.49
2022-08-19T01:29:01.253Z,18.48
2022-08-19T01:30:00.163Z,18.57
2022-08-19T01:31:00.144Z,18.58
2022-08-19T01:32:00.135Z,18.56
2022-08-19T01:33:00.121Z,18.57
2022-08-19T01:34:00.124Z,18.43
2022-08-19T01:35:00.136Z,18.52
2022-08-19T01:36:00.112Z,18.52
2022-08-19T01:37:00.107Z,18.34
2022-08-19T01:38:00.095Z,18.15
2022-08-19T01:39:00.085Z,18.21
2022-08-19T01:40:00.147Z,18.17
2022-08-19T01:41:00.054Z,18.17
2022-08-19T01:42:00.052Z,18.20
2022-08-19T01:43:00.040Z,18.21
2022-08-19T01:44:13.394Z,18.23
2022-08-19T01:45:01.058Z,18.23
2022-08-19T01:46:00.030Z,18.26
2022-08-19T01:47:00.024Z,18.24
2022-08-19T01:48:01.775Z,18.21
2022-08-19T01:48:59.999Z,18.18
2022-08-19T01:49:59.982Z,18.21
2022-08-19T01:51:00.030Z,18.24
2022-08-19T01:51:59.993Z,18.21
2022-08-19T01:53:02.245Z,18.09
2022-08-19T01:54:00.958Z,18.13
2022-08-19T01:54:59.951Z,18.21
2022-08-19T01:55:59.954Z,18.09
2022-08-19T01:56:59.919Z,18.18
2022-08-19T01:57:59.919Z,18.18
2022-08-19T01:58:59.920Z,18.23
2022-08-19T01:59:59.907Z,18.23
2022-08-19T02:00:59.945Z,18.30
2022-08-19T02:01:59.921Z,18.21
2022-08-19T02:02:59.886Z,18.21
2022-08-19T02:03:59.888Z,18.26
2022-08-19T02:04:59.872Z,18.28
2022-08-19T02:05:59.868Z,18.21
2022-08-19T02:06:59.882Z,18.28
2022-08-19T02:07:59.847Z,18.31
2022-08-19T02:08:59.848Z,18.28
2022-08-19T02:09:59.833Z,18.30
2022-08-19T02:10:59.834Z,18.28
2022-08-19T02:11:59.820Z,18.31
2022-08-19T02:12:59.822Z,18.41
2022-08-19T02:13:59.800Z,18.34
2022-08-19T02:14:59.818Z,18.39
2022-08-19T02:15:59.801Z,18.24
2022-08-19T02:16:59.771Z,18.34
2022-08-19T02:17:59.777Z,18.33
2022-08-19T02:18:59.764Z,18.30
2022-08-19T02:19:59.780Z,18.26
2022-08-19T02:20:59.770Z,18.17
2022-08-19T02:21:59.733Z,18.17
2022-08-19T02:22:59.732Z,18.12
2022-08-19T02:23:59.752Z,18.08
2022-08-19T02:24:59.740Z,18.01
2022-08-19T02:25:59.701Z,18.06
2022-08-19T02:26:59.697Z,17.99
2022-08-19T02:27:59.685Z,18.05
2022-08-19T02:28:59.675Z,17.97
2022-08-19T02:29:59.661Z,18.05
2022-08-19T02:30:59.668Z,17.99
2022-08-19T02:31:59.688Z,18.06
2022-08-19T02:32:59.707Z,18.13
2022-08-19T02:33:59.636Z,18.24
2022-08-19T02:34:59.657Z,18.26
2022-08-19T02:35:59.624Z,18.23
2022-08-19T02:37:03.453Z,18.17
2022-08-19T02:37:59.630Z,18.21
2022-08-19T02:38:59.601Z,18.31
2022-08-19T02:39:59.614Z,18.33
2022-08-19T02:40:59.585Z,18.28
2022-08-19T02:41:59.566Z,18.31
2022-08-19T02:42:59.559Z,18.36
2022-08-19T02:44:26.293Z,18.38
2022-08-19T02:45:00.548Z,18.30
2022-08-19T02:45:59.532Z,18.34
2022-08-19T02:46:59.538Z,18.39
2022-08-19T02:47:59.525Z,18.45
2022-08-19T02:48:59.567Z,18.43
2022-08-19T02:49:59.509Z,18.34
2022-08-19T02:50:59.504Z,18.45
2022-08-19T02:51:59.507Z,18.49
2022-08-19T02:52:59.496Z,18.43
2022-08-19T02:53:59.470Z,18.57
2022-08-19T02:54:59.549Z,18.46
2022-08-19T02:55:59.457Z,18.42
2022-08-19T02:56:59.462Z,18.31
2022-08-19T02:57:59.454Z,18.39
2022-08-19T02:58:59.435Z,18.39
2022-08-19T02:59:59.427Z,18.39
2022-08-19T03:00:59.547Z,18.51
2022-08-19T03:01:59.413Z,18.39
2022-08-19T03:02:59.405Z,18.56
2022-08-19T03:03:59.404Z,18.52
2022-08-19T03:04:59.409Z,18.42
2022-08-19T03:05:59.385Z,18.49
2022-08-19T03:07:07.208Z,18.41
2022-08-19T03:08:00.373Z,18.52
2022-08-19T03:08:59.398Z,18.54
2022-08-19T03:09:59.359Z,18.48
2022-08-19T03:10:59.358Z,18.49
2022-08-19T03:11:59.346Z,18.49
2022-08-19T03:12:59.357Z,18.56
2022-08-19T03:14:00.336Z,18.54
2022-08-19T03:14:59.314Z,18.58
2022-08-19T03:15:59.314Z,18.51
2022-08-19T03:16:59.302Z,18.57
2022-08-19T03:17:59.291Z,18.57
2022-08-19T03:18:59.330Z,18.52
2022-08-19T03:19:59.301Z,18.60
2022-08-19T03:20:59.281Z,18.71
2022-08-19T03:21:59.275Z,18.76
2022-08-19T03:22:59.257Z,18.81
2022-08-19T03:23:59.247Z,18.76
2022-08-19T03:24:59.261Z,18.79
2022-08-19T03:26:03.018Z,18.81
2022-08-19T03:27:00.245Z,18.81
2022-08-19T03:27:59.215Z,18.83
2022-08-19T03:28:59.212Z,18.83
2022-08-19T03:29:59.191Z,18.97
2022-08-19T03:30:59.182Z,18.96
2022-08-19T03:31:59.181Z,19.01
2022-08-19T03:32:59.261Z,18.97
2022-08-19T03:33:59.166Z,19.16
2022-08-19T03:34:59.165Z,19.12
2022-08-19T03:35:59.147Z,19.08
2022-08-19T03:36:59.144Z,19.12
2022-08-19T03:37:59.145Z,19.07
2022-08-19T03:38:59.940Z,19.16
2022-08-19T03:39:59.195Z,19.12
2022-08-19T03:40:59.153Z,19.09
2022-08-19T03:42:32.588Z,19.19
2022-08-19T03:43:01.219Z,19.19
2022-08-19T03:43:59.092Z,19.27
2022-08-19T03:44:59.100Z,19.30
2022-08-19T03:45:59.090Z,19.35
2022-08-19T03:46:59.064Z,19.38
2022-08-19T03:47:59.058Z,19.39
2022-08-19T03:48:59.091Z,19.37
2022-08-19T03:49:59.063Z,19.41
2022-08-19T03:50:59.029Z,19.39
2022-08-19T03:51:59.069Z,19.37
2022-08-19T03:52:59.023Z,19.39
2022-08-19T03:53:59.037Z,19.45
2022-08-19T03:54:59.019Z,19.38
2022-08-19T03:55:58.988Z,19.39
2022-08-19T03:56:58.996Z,19.22
2022-08-19T03:57:59.450Z,19.22
2022-08-19T03:58:58.963Z,19.09
2022-08-19T04:00:12.647Z,19.05
2022-08-19T04:01:00.098Z,18.88
2022-08-19T04:01:58.976Z,18.93
2022-08-19T04:03:00.569Z,18.93
2022-08-19T04:03:58.929Z,18.83
2022-08-19T04:04:58.942Z,18.91
2022-08-19T04:05:58.931Z,19.00
2022-08-19T04:06:58.933Z,19.01
2022-08-19T04:07:58.904Z,18.94
2022-08-19T04:08:58.925Z,19.07
2022-08-19T04:09:58.906Z,19.00
2022-08-19T04:10:58.876Z,19.08
2022-08-19T04:11:58.899Z,19.09
2022-08-19T04:12:58.859Z,19.07
2022-08-19T04:13:58.842Z,19.23
2022-08-19T04:14:58.859Z,19.08
2022-08-19T04:15:58.831Z,19.17
2022-08-19T04:16:58.831Z,19.30
2022-08-19T04:17:58.814Z,19.37
2022-08-19T04:18:58.804Z,19.47
2022-08-19T04:19:58.808Z,19.35
2022-08-19T04:20:59.094Z,19.38
2022-08-19T04:21:58.783Z,19.52
2022-08-19T04:22:58.793Z,19.50
2022-08-19T04:23:58.766Z,19.53
2022-08-19T04:24:58.758Z,19.39
2022-08-19T04:25:58.748Z,19.37
2022-08-19T04:26:58.759Z,19.35
2022-08-19T04:27:58.729Z,19.39
2022-08-19T04:28:58.739Z,19.35
2022-08-19T04:29:58.724Z,19.26
2022-08-19T04:30:58.712Z,19.22
2022-08-19T04:31:59.107Z,19.22
2022-08-19T04:32:58.701Z,19.27
2022-08-19T04:33:58.690Z,19.22
2022-08-19T04:35:02.717Z,19.32
2022-08-19T04:35:59.688Z,19.44
2022-08-19T04:36:58.690Z,19.32
2022-08-19T04:37:58.661Z,19.41
2022-08-19T04:38:58.658Z,19.38
2022-08-19T04:39:58.798Z,19.37
2022-08-19T04:40:58.626Z,19.27
2022-08-19T04:41:58.621Z,19.30
2022-08-19T04:43:07.585Z,19.24
2022-08-19T04:44:03.767Z,19.13
2022-08-19T04:44:59.633Z,19.15
2022-08-19T04:46:00.810Z,19.07
2022-08-19T04:46:58.587Z,19.12
2022-08-19T04:48:26.858Z,19.12
2022-08-19T04:48:59.606Z,19.19
2022-08-19T04:49:59.581Z,19.15
2022-08-19T04:50:58.564Z,19.24
2022-08-19T04:51:58.548Z,19.17
2022-08-19T04:52:58.539Z,19.05
2022-08-19T04:53:58.532Z,19.12
2022-08-19T04:54:58.548Z,19.07
2022-08-19T04:55:58.516Z,19.23
2022-08-19T04:56:58.530Z,19.20
2022-08-19T04:57:58.526Z,19.23
2022-08-19T04:58:58.486Z,19.20
2022-08-19T04:59:58.487Z,19.24
2022-08-19T05:00:58.550Z,19.32
2022-08-19T05:01:58.907Z,19.34
2022-08-19T05:02:58.477Z,19.27
2022-08-19T05:03:58.440Z,19.22
2022-08-19T05:04:58.464Z,19.27
2022-08-19T05:05:58.426Z,19.37
2022-08-19T05:07:00.712Z,19.34
2022-08-19T05:07:58.442Z,19.38
2022-08-19T05:08:58.410Z,19.41
2022-08-19T05:09:59.297Z,19.37
2022-08-19T05:10:58.477Z,19.38
2022-08-19T05:11:58.393Z,19.24
2022-08-19T05:12:58.380Z,19.24
2022-08-19T05:13:58.367Z,19.41
2022-08-19T05:14:58.478Z,19.23
2022-08-19T05:15:58.354Z,19.34
2022-08-19T05:17:17.212Z,19.39
2022-08-19T05:17:59.369Z,19.34
2022-08-19T05:18:58.335Z,19.44
2022-08-19T05:19:58.369Z,19.38
2022-08-19T05:20:58.313Z,19.52
2022-08-19T05:21:58.311Z,19.62
2022-08-19T05:22:58.299Z,19.59
2022-08-19T05:23:58.304Z,19.54
2022-08-19T05:25:12.161Z,19.50
2022-08-19T05:25:59.293Z,19.57
2022-08-19T05:27:05.790Z,19.62
2022-08-19T05:28:05.836Z,19.64
2022-08-19T05:28:58.256Z,19.62
2022-08-19T05:29:58.241Z,19.59
2022-08-19T05:30:58.230Z,19.74
2022-08-19T05:31:58.244Z,19.72
2022-08-19T05:32:58.242Z,19.70
2022-08-19T05:33:58.210Z,19.75
2022-08-19T05:34:58.207Z,19.67
2022-08-19T05:35:58.190Z,19.68
2022-08-19T05:36:58.182Z,19.74
2022-08-19T05:37:59.097Z,19.81
2022-08-19T05:38:58.171Z,19.84
2022-08-19T05:39:58.172Z,19.94
2022-08-19T05:40:58.153Z,19.94
2022-08-19T05:41:58.138Z,19.92
2022-08-19T05:42:58.157Z,19.99
2022-08-19T05:43:58.122Z,20.09
2022-08-19T05:44:58.120Z,20.07
2022-08-19T05:45:58.130Z,19.93
2022-08-19T05:46:58.108Z,19.94
2022-08-19T05:47:58.104Z,19.86
2022-08-19T05:48:58.084Z,19.87
2022-08-19T05:49:58.102Z,19.86
2022-08-19T05:50:58.079Z,19.87
2022-08-19T05:51:58.103Z,19.87
2022-08-19T05:52:58.180Z,20.08
2022-08-19T05:53:58.052Z,20.07
2022-08-19T05:54:58.037Z,20.14
2022-08-19T05:55:58.061Z,19.97
2022-08-19T05:56:58.019Z,19.99
2022-08-19T05:57:58.068Z,19.81
2022-08-19T05:58:58.415Z,19.74
2022-08-19T05:59:59.005Z,19.81
2022-08-19T06:00:57.995Z,19.79
2022-08-19T06:01:58.010Z,19.78
2022-08-19T06:02:58.023Z,19.86
2022-08-19T06:03:58.023Z,19.93
2022-08-19T06:04:57.975Z,20.05
2022-08-19T06:05:57.961Z,20.18
2022-08-19T06:06:57.967Z,20.23
2022-08-19T06:07:57.968Z,20.25
2022-08-19T06:08:57.934Z,20.33
2022-08-19T06:10:00.455Z,20.58
2022-08-19T06:10:57.921Z,20.53
2022-08-19T06:11:57.901Z,20.65
2022-08-19T06:12:57.913Z,20.65
2022-08-19T06:14:00.122Z,20.64
2022-08-19T06:15:00.600Z,20.67
2022-08-19T06:15:57.875Z,20.64
2022-08-19T06:16:57.871Z,20.73
2022-08-19T06:17:57.865Z,20.75
2022-08-19T06:18:57.868Z,20.68
2022-08-19T06:19:57.870Z,20.56
2022-08-19T06:20:57.864Z,20.71
2022-08-19T06:21:57.861Z,20.74
2022-08-19T06:22:57.827Z,20.90
2022-08-19T06:23:57.814Z,21.08
2022-08-19T06:24:57.808Z,21.08
2022-08-19T06:25:57.836Z,21.13
2022-08-19T06:27:00.823Z,20.82
2022-08-19T06:28:14.558Z,20.74
2022-08-19T06:28:58.806Z,20.75
2022-08-19T06:29:57.780Z,20.89
2022-08-19T06:30:57.796Z,21.01
2022-08-19T06:31:57.747Z,21.07
2022-08-19T06:32:57.751Z,21.10
2022-08-19T06:33:57.739Z,21.04
2022-08-19T06:34:57.749Z,21.20
2022-08-19T06:35:57.730Z,21.19
2022-08-19T06:36:57.721Z,21.28
2022-08-19T06:37:57.960Z,21.32
2022-08-19T06:38:57.725Z,21.41
2022-08-19T06:39:57.758Z,21.45
2022-08-19T06:40:57.688Z,21.45
2022-08-19T06:41:58.910Z,21.48
2022-08-19T06:42:57.972Z,21.55
2022-08-19T06:43:57.656Z,21.53
2022-08-19T06:44:57.776Z,21.47
2022-08-19T06:45:57.649Z,21.23
2022-08-19T06:46:57.648Z,20.97
2022-08-19T06:47:57.730Z,21.07
2022-08-19T06:48:57.620Z,21.16
2022-08-19T06:50:01.020Z,21.26
2022-08-19T06:50:57.595Z,21.07
2022-08-19T06:51:57.590Z,20.93
2022-08-19T06:52:57.583Z,20.90
2022-08-19T06:53:57.598Z,20.97
2022-08-19T06:54:59.688Z,20.92
2022-08-19T06:55:57.626Z,21.03
2022-08-19T06:56:57.552Z,21.20
2022-08-19T06:57:57.541Z,21.30
2022-08-19T06:58:57.558Z,21.47
2022-08-19T06:59:57.545Z,21.29
2022-08-19T07:00:57.534Z,20.90
2022-08-19T07:01:57.528Z,21.14
2022-08-19T07:03:01.009Z,21.30
2022-08-19T07:03:58.683Z,21.04
2022-08-19T07:04:57.539Z,21.04
2022-08-19T07:05:57.499Z,21.07
2022-08-19T07:06:57.553Z,21.14
2022-08-19T07:07:59.720Z,20.92
2022-08-19T07:08:58.463Z,20.92
2022-08-19T07:09:59.885Z,20.90
2022-08-19T07:10:57.451Z,20.93
2022-08-19T07:11:57.478Z,21.05
2022-08-19T07:12:57.436Z,20.98
2022-08-19T07:13:57.431Z,21.04
2022-08-19T07:14:57.701Z,21.08
2022-08-19T07:15:57.413Z,21.04
2022-08-19T07:16:57.411Z,20.83
2022-08-19T07:17:57.429Z,20.88
2022-08-19T07:18:57.391Z,20.85
2022-08-19T07:19:57.411Z,20.82
2022-08-19T07:20:57.407Z,20.65
2022-08-19T07:21:57.360Z,20.67
2022-08-19T07:22:57.354Z,20.49
2022-08-19T07:23:57.355Z,20.56
2022-08-19T07:24:57.410Z,20.71
2022-08-19T07:25:57.419Z,20.79
2022-08-19T07:26:57.347Z,20.77
2022-08-19T07:27:58.422Z,20.80
2022-08-19T07:28:57.310Z,20.98
2022-08-19T07:29:59.668Z,20.73
2022-08-19T07:30:57.307Z,20.90
2022-08-19T07:31:57.291Z,20.88
2022-08-19T07:32:57.307Z,21.03
2022-08-19T07:33:57.278Z,21.22
2022-08-19T07:34:57.326Z,21.14
2022-08-19T07:35:57.309Z,21.16
2022-08-19T07:36:57.281Z,21.37
2022-08-19T07:37:57.290Z,21.60
2022-08-19T07:38:57.259Z,21.63
2022-08-19T07:39:57.274Z,21.78
2022-08-19T07:40:57.209Z,21.80
2022-08-19T07:41:57.212Z,22.06
2022-08-19T07:42:57.198Z,22.11
2022-08-19T07:43:57.204Z,22.21
2022-08-19T07:44:57.199Z,22.38
2022-08-19T07:45:57.238Z,22.30
2022-08-19T07:46:57.168Z,22.40
2022-08-19T07:47:57.166Z,22.41
2022-08-19T07:48:57.228Z,22.58
2022-08-19T07:49:57.220Z,22.74
2022-08-19T07:50:57.150Z,22.48
2022-08-19T07:51:57.122Z,22.03
2022-08-19T07:52:57.133Z,21.90
2022-08-19T07:53:57.123Z,21.58
2022-08-19T07:54:57.143Z,21.74
2022-08-19T07:55:57.118Z,21.90
2022-08-19T07:56:57.095Z,22.01
2022-08-19T07:57:57.092Z,22.12
2022-08-19T07:59:57.083Z,22.21
2022-08-19T08:00:57.084Z,22.21
2022-08-19T08:01:57.114Z,21.97
2022-08-19T08:02:57.147Z,21.88
2022-08-19T08:03:57.056Z,21.60
2022-08-19T08:04:57.019Z,21.56
2022-08-19T08:05:57.012Z,21.65
2022-08-19T08:06:57.032Z,21.66
2022-08-19T08:07:56.996Z,21.47
2022-08-19T08:08:56.980Z,21.37
2022-08-19T08:09:57.023Z,21.29
2022-08-19T08:10:57.543Z,21.43
2022-08-19T08:11:57.704Z,21.53
2022-08-19T08:13:09.995Z,21.34
2022-08-19T08:14:00.976Z,21.30
2022-08-19T08:14:56.937Z,21.50
2022-08-19T08:15:56.939Z,21.59
2022-08-19T08:16:56.935Z,21.75
2022-08-19T08:17:56.905Z,21.75
2022-08-19T08:18:56.921Z,21.78
2022-08-19T08:19:56.905Z,21.96
2022-08-19T08:20:56.888Z,21.96
2022-08-19T08:21:59.277Z,21.71
2022-08-19T08:22:57.009Z,21.90
2022-08-19T08:23:57.020Z,21.75
2022-08-19T08:24:56.921Z,21.74
2022-08-19T08:25:56.853Z,21.80
2022-08-19T08:26:57.611Z,21.96
2022-08-19T08:27:56.925Z,22.13
2022-08-19T08:28:57.688Z,22.15
2022-08-19T08:29:56.820Z,21.69
2022-08-19T08:30:56.818Z,21.58
2022-08-19T08:31:58.585Z,21.45
2022-08-19T08:32:56.809Z,21.84
2022-08-19T08:33:56.861Z,22.03
2022-08-19T08:34:56.790Z,22.00
2022-08-19T08:35:56.758Z,22.04
2022-08-19T08:36:56.757Z,22.21
2022-08-19T08:37:57.850Z,22.49
2022-08-19T08:39:56.786Z,22.61
2022-08-19T08:40:56.755Z,22.64
2022-08-19T08:41:56.725Z,22.43
2022-08-19T08:42:56.707Z,22.44
2022-08-19T08:43:56.703Z,22.18
2022-08-19T08:45:56.696Z,22.46
2022-08-19T08:46:56.696Z,22.56
2022-08-19T08:47:56.668Z,22.46
2022-08-19T08:48:56.645Z,22.74
2022-08-19T08:49:56.640Z,22.64
2022-08-19T08:50:56.628Z,22.41
2022-08-19T08:51:59.672Z,22.49
2022-08-19T08:52:56.708Z,22.13
2022-08-19T08:53:56.994Z,21.73
2022-08-19T08:54:56.617Z,21.77
2022-08-19T08:55:56.586Z,21.82
2022-08-19T08:56:56.585Z,21.58
2022-08-19T08:57:56.795Z,21.84
2022-08-19T08:58:56.630Z,21.93
2022-08-19T08:59:56.575Z,22.21
2022-08-19T09:00:56.563Z,22.46
2022-08-19T09:01:56.570Z,22.66
2022-08-19T09:02:56.526Z,22.56
2022-08-19T09:03:56.531Z,22.40
2022-08-19T09:04:57.544Z,22.49
2022-08-19T09:05:56.515Z,22.64
2022-08-19T09:06:56.508Z,22.49
2022-08-19T09:07:56.638Z,22.74
2022-08-19T09:08:56.803Z,23.03
2022-08-19T09:09:56.477Z,23.17
2022-08-19T09:10:56.555Z,23.15
2022-08-19T09:11:56.485Z,22.96
2022-08-19T09:12:56.455Z,22.56
2022-08-19T09:13:56.445Z,22.41
2022-08-19T09:14:56.428Z,22.22
2022-08-19T09:15:56.491Z,22.18
2022-08-19T09:16:56.420Z,22.53
2022-08-19T09:17:56.410Z,22.67
2022-08-19T09:18:56.424Z,22.83
2022-08-19T09:19:56.393Z,23.33
2022-08-19T09:20:56.383Z,23.45
2022-08-19T09:21:56.956Z,23.48
2022-08-19T09:22:56.381Z,23.54
2022-08-19T09:23:56.353Z,23.70
2022-08-19T09:24:56.800Z,23.11
2022-08-19T09:25:57.312Z,23.45
2022-08-19T09:26:56.335Z,24.13
2022-08-19T09:28:02.523Z,24.84
2022-08-19T09:28:58.304Z,25.31
2022-08-19T09:29:56.305Z,25.64
2022-08-19T09:30:56.975Z,25.21
2022-08-19T09:31:56.310Z,25.43
2022-08-19T09:32:56.288Z,25.45
2022-08-19T09:33:56.309Z,25.53
2022-08-19T09:34:56.449Z,24.34
2022-08-19T09:35:56.328Z,23.98
2022-08-19T09:36:57.226Z,24.44
2022-08-19T09:37:59.457Z,25.00
2022-08-19T09:38:57.777Z,25.34
2022-08-19T09:39:56.319Z,25.28
2022-08-19T09:40:56.223Z,25.16
2022-08-19T09:41:56.401Z,24.60
2022-08-19T09:42:56.243Z,23.70
2022-08-19T09:43:56.242Z,23.85
2022-08-19T09:44:56.197Z,24.55
2022-08-19T09:45:56.194Z,25.38
2022-08-19T09:46:56.397Z,26.01
2022-08-19T09:47:56.375Z,26.65
2022-08-19T09:48:56.525Z,26.90
2022-08-19T09:49:56.161Z,27.32
2022-08-19T09:50:56.149Z,27.87
2022-08-19T09:51:56.169Z,26.64
2022-08-19T09:52:57.782Z,26.98
2022-08-19T09:53:56.265Z,27.04
2022-08-19T09:54:56.301Z,26.00
2022-08-19T09:55:56.656Z,26.10
2022-08-19T09:56:56.144Z,25.38
2022-08-19T09:57:56.493Z,24.90
2022-08-19T09:58:56.079Z,24.99
2022-08-19T09:59:56.368Z,24.78
2022-08-19T10:00:56.128Z,24.43
2022-08-19T10:01:56.156Z,24.10
2022-08-19T10:02:57.098Z,24.07
2022-08-19T10:03:56.088Z,24.74
2022-08-19T10:04:56.053Z,25.18
2022-08-19T10:05:56.078Z,25.71
2022-08-19T10:06:56.027Z,26.21
2022-08-19T10:07:56.028Z,25.93
2022-08-19T10:08:56.940Z,26.04
2022-08-19T10:09:55.997Z,26.45
2022-08-19T10:10:56.174Z,26.27
2022-08-19T10:11:55.990Z,26.43
2022-08-19T10:12:55.980Z,26.89
2022-08-19T10:13:55.973Z,26.28
2022-08-19T10:14:55.992Z,25.63
2022-08-19T10:15:56.851Z,25.21
2022-08-19T10:16:56.124Z,25.58
2022-08-19T10:17:56.042Z,25.18
2022-08-19T10:18:59.111Z,25.58
2022-08-19T10:19:56.910Z,25.83
2022-08-19T10:20:55.965Z,26.11
2022-08-19T10:22:00.311Z,26.46
2022-08-19T10:22:55.908Z,26.15
2022-08-19T10:23:55.897Z,25.83
2022-08-19T10:24:55.951Z,25.95
2022-08-19T10:25:56.258Z,26.24
2022-08-19T10:26:59.015Z,26.19
2022-08-19T10:27:56.216Z,26.16
2022-08-19T10:28:55.860Z,26.85
2022-08-19T10:29:56.590Z,27.63
2022-08-19T10:30:55.866Z,27.75
2022-08-19T10:32:00.546Z,27.17
2022-08-19T10:32:56.828Z,26.83
2022-08-19T10:33:55.832Z,27.37
2022-08-19T10:34:57.275Z,26.90
2022-08-19T10:35:57.012Z,27.19
2022-08-19T10:37:00.562Z,27.23
2022-08-19T10:38:00.228Z,27.15
2022-08-19T10:38:58.770Z,27.34
2022-08-19T10:39:55.851Z,27.53
2022-08-19T10:40:55.754Z,26.51
2022-08-19T10:41:55.786Z,26.73
2022-08-19T10:42:56.866Z,26.95
2022-08-19T10:43:58.759Z,26.82
2022-08-19T10:44:57.164Z,26.21
2022-08-19T10:45:55.718Z,26.21
2022-08-19T10:46:56.623Z,26.23
2022-08-19T10:47:55.901Z,26.04
2022-08-19T10:48:55.713Z,25.16
2022-08-19T10:49:55.734Z,24.89
2022-08-19T10:50:55.704Z,24.96
2022-08-19T10:51:55.698Z,24.90
2022-08-19T10:52:56.413Z,25.30
2022-08-19T10:53:55.652Z,25.37
2022-08-19T10:54:55.703Z,25.64
2022-08-19T10:55:56.840Z,25.98
2022-08-19T10:56:55.686Z,26.43
2022-08-19T10:58:03.098Z,26.52
2022-08-19T10:58:56.614Z,26.15
2022-08-19T10:59:55.604Z,26.73
2022-08-19T11:00:55.665Z,27.38
2022-08-19T11:01:55.743Z,26.95
2022-08-19T11:02:55.584Z,27.15
2022-08-19T11:03:55.571Z,27.31
2022-08-19T11:04:55.592Z,27.16
2022-08-19T11:05:55.574Z,27.34
2022-08-19T11:06:55.575Z,27.64
2022-08-19T11:07:55.792Z,28.01
2022-08-19T11:08:55.535Z,27.87
2022-08-19T11:09:55.546Z,26.51
2022-08-19T11:10:55.513Z,26.52
2022-08-19T11:11:55.520Z,26.75
2022-08-19T11:12:55.522Z,26.46
2022-08-19T11:13:55.521Z,26.08
2022-08-19T11:14:55.489Z,25.96
2022-08-19T11:15:55.471Z,26.19
2022-08-19T11:16:55.478Z,26.78
2022-08-19T11:17:55.709Z,27.37
2022-08-19T11:18:55.945Z,26.95
2022-08-19T11:19:55.463Z,26.85
2022-08-19T11:20:55.444Z,26.97
2022-08-19T11:21:56.570Z,27.23
2022-08-19T11:22:55.443Z,27.44
2022-08-19T11:23:55.448Z,26.76
2022-08-19T11:24:55.430Z,26.26
2022-08-19T11:25:55.406Z,25.95
2022-08-19T11:26:55.402Z,26.57
2022-08-19T11:27:55.608Z,27.27
2022-08-19T11:28:55.435Z,26.93
2022-08-19T11:29:55.371Z,26.76
2022-08-19T11:30:55.426Z,26.75
2022-08-19T11:31:55.353Z,26.89
2022-08-19T11:32:55.355Z,27.40
2022-08-19T11:33:55.367Z,27.63
2022-08-19T11:34:55.341Z,27.87
2022-08-19T11:35:55.457Z,28.27
2022-08-19T11:36:55.335Z,28.81
2022-08-19T11:37:55.532Z,28.77
2022-08-19T11:38:55.319Z,29.03
2022-08-19T11:39:55.365Z,29.10
2022-08-19T11:40:55.314Z,29.46
2022-08-19T11:41:55.286Z,29.65
2022-08-19T11:42:55.279Z,29.65
2022-08-19T11:43:55.273Z,29.66
2022-08-19T11:44:55.262Z,29.78
2022-08-19T11:45:55.379Z,28.52
2022-08-19T11:46:55.243Z,27.42
2022-08-19T11:47:55.351Z,28.15
2022-08-19T11:48:55.231Z,27.61
2022-08-19T11:49:55.257Z,27.22
2022-08-19T11:50:55.241Z,25.86
2022-08-19T11:51:55.242Z,26.03
2022-08-19T11:52:55.196Z,26.27
2022-08-19T11:53:55.190Z,26.49
2022-08-19T11:54:55.188Z,26.31
2022-08-19T11:55:55.225Z,26.16
2022-08-19T11:56:55.188Z,26.78
2022-08-19T11:57:55.398Z,27.20
2022-08-19T11:58:55.145Z,27.78
2022-08-19T11:59:55.161Z,28.27
2022-08-19T12:00:55.133Z,28.34
2022-08-19T12:01:55.128Z,28.22
2022-08-19T12:02:55.143Z,27.75
2022-08-19T12:03:55.195Z,27.91
2022-08-19T12:04:55.118Z,28.31
2022-08-19T12:05:55.119Z,28.03
2022-08-19T12:06:55.083Z,27.82
2022-08-19T12:07:55.281Z,27.34
2022-08-19T12:08:55.096Z,26.86
2022-08-19T12:09:55.084Z,26.38
2022-08-19T12:10:55.067Z,26.80
2022-08-19T12:11:55.110Z,27.16
2022-08-19T12:12:58.870Z,27.52
2022-08-19T12:13:55.110Z,27.83
2022-08-19T12:14:55.110Z,28.01
2022-08-19T12:15:55.064Z,28.25
2022-08-19T12:16:55.008Z,28.20
2022-08-19T12:17:55.201Z,28.52
2022-08-19T12:18:54.989Z,27.15
2022-08-19T12:19:55.021Z,27.04
2022-08-19T12:20:54.999Z,27.54
2022-08-19T12:21:54.962Z,27.75
2022-08-19T12:22:54.964Z,27.98
2022-08-19T12:23:55.941Z,27.38
2022-08-19T12:24:54.962Z,26.63
2022-08-19T12:25:54.958Z,26.34
2022-08-19T12:26:54.969Z,25.93
2022-08-19T12:27:57.616Z,26.00
2022-08-19T12:28:54.923Z,26.16
2022-08-19T12:29:54.936Z,26.26
2022-08-19T12:30:54.913Z,26.33
2022-08-19T12:31:54.937Z,26.43
2022-08-19T12:32:54.880Z,26.75
2022-08-19T12:33:54.870Z,27.13
2022-08-19T12:34:54.876Z,27.31
2022-08-19T12:35:54.875Z,26.97
2022-08-19T12:36:54.856Z,27.04
2022-08-19T12:37:57.608Z,27.64
2022-08-19T12:38:54.846Z,28.31
2022-08-19T12:39:54.917Z,28.56
2022-08-19T12:40:59.639Z,28.31
2022-08-19T12:41:56.787Z,28.59
2022-08-19T12:42:54.800Z,28.05
2022-08-19T12:43:54.814Z,28.37
2022-08-19T12:44:54.775Z,28.46
2022-08-19T12:45:54.782Z,28.16
2022-08-19T12:46:54.769Z,28.00
2022-08-19T12:47:55.341Z,27.53
2022-08-19T12:48:55.409Z,28.20
2022-08-19T12:49:55.904Z,28.01
2022-08-19T12:50:54.736Z,27.73
2022-08-19T12:51:54.727Z,28.03
2022-08-19T12:52:54.786Z,28.32
2022-08-19T12:53:54.731Z,28.13
2022-08-19T12:54:55.049Z,28.31